Terminal Aerodrome Forecast
Issued by NWS

Home | Current Version | Previous Version | Text Only | Print | Product List | Glossary On
Versions: 1 2 3 4 5 6 7 8 9 10 11 12 13 14 15 16
000
FTUS42 KTBW 251125
TAFRSW
TAF
KRSW 251125Z 2512/2612 07005KT P6SM FEW025 SCT250
     FM251500 10010KT P6SM SCT030 SCT250
     FM252000 12013KT P6SM VCTS BKN050CB BKN250
     FM260000 10008KT P6SM VCSH SCT030 BKN050
     FM260200 07006KT P6SM FEW025 SCT100 BKN250=

USA.gov is the U.S. government's official web portal to all federal, state and local government web resources and services.